Latest Weather Observations for Urandangi

IDQ60801

Issued at 1:32 pm EST Sunday 7 February 2016 (issued every 30 minutes, with the page automatically refreshed every 10 minutes)

About weather observations | Map of weather stations | Latest weather observations for QLD | Other Formats
Station Details ID: 037058 Name: URANDANGI AERODROME Lat: -21.60 Lon: 138.37 Height: 178.6 m
Data from the previous 72 hours. | See also: Recent months at Urandangi
Date/Time
EST
Temp
°C
App
Temp
°C
Dew
Point
Rel
Hum
%
Delta-T
°C
Wind Press
QNH
hPa
Press
MSL
hPa
Rain
since 9 am
mm
Dir
 
Spd
km/h
Gust
km/h
Spd
kts
Gust
kts
07/01:30pm 34.7 34.6 19.5 40 10.1 S 19 28 10 15 1008.4 1007.1 0.0
07/01:00pm 33.9 34.0 19.9 43 9.4 SSE 19 28 10 15 1008.8 1007.5 0.0
07/12:30pm 34.0 33.9 19.6 42 9.6 S 19 24 10 13 1009.0 1007.7 0.0
07/12:00pm 33.5 34.5 21.0 48 8.5 SSE 17 24 9 13 1009.2 1007.9 0.0
07/11:30am 32.6 33.7 20.5 49 8.1 SSE 15 22 8 12 1009.5 1008.2 0.0
07/11:00am 32.5 33.0 20.1 48 8.3 SE 17 22 9 12 1009.6 1008.3 0.0
07/10:30am 31.9 33.8 21.4 53 7.1 SSE 13 19 7 10 1009.5 1008.2 0.0
07/10:00am 30.7 32.2 21.2 57 6.4 SE 15 20 8 11 1009.5 1008.2 0.0
07/09:30am 29.7 31.1 21.1 60 5.8 SE 15 20 8 11 1009.4 1008.1 0.0
07/09:00am 28.8 29.8 21.1 63 5.2 SE 17 22 9 12 1009.1 1007.8 0.0
07/08:30am 28.2 29.9 20.2 62 5.3 SE 11 17 6 9 1009.1 1007.8 0.0
07/08:00am 27.1 28.4 19.4 62 5.0 SE 11 17 6 9 1009.0 1007.7 0.0
07/07:30am 24.9 26.7 18.8 69 3.9 SSE 7 9 4 5 1008.7 1007.4 0.0
07/07:00am 23.0 24.9 19.0 78 2.6 SE 7 9 4 5 1008.3 1007.0 0.0
07/06:30am 22.5 24.5 18.7 79 2.4 ESE 6 9 3 5 1008.0 1006.7 0.0
07/06:00am 22.3 24.2 18.5 79 2.4 E 6 6 3 3 1007.6 1006.2 0.0
07/05:30am 22.5 24.4 18.5 78 2.5 E 6 6 3 3 1007.4 1006.0 0.0
07/05:00am 22.9 24.6 18.0 74 3.1 SE 6 6 3 3 1007.5 1006.1 0.0
07/04:30am 23.7 23.5 17.7 69 3.8 SSE 15 30 8 16 1007.2 1005.8 0.0
07/04:00am 23.5 24.5 17.7 70 3.6 WSW 9 9 5 5 1006.5 1005.1 0.0
07/03:30am 23.1 24.6 18.0 73 3.2 WSW 7 9 4 5 1006.4 1005.0 0.0
07/03:00am 23.6 25.3 18.5 73 3.2 WSW 7 9 4 5 1006.4 1005.0 0.0
07/02:30am 23.8 25.2 18.7 73 3.3 W 9 9 5 5 1006.3 1004.9 0.0
07/02:00am 24.8 26.0 18.3 67 4.1 W 9 9 5 5 1006.4 1005.0 0.0
07/01:30am 25.1 26.6 19.0 69 3.9 W 9 9 5 5 1006.6 1005.2 0.0
07/01:00am 24.7 26.3 19.1 71 3.6 W 9 9 5 5 1006.8 1005.4 0.0
07/12:30am 24.8 27.0 19.6 73 3.4 W 7 7 4 4 1007.0 1005.6 0.0
07/12:00am 26.4 28.2 18.3 61 5.2 NW 6 6 3 3 1007.2 1005.8 0.0
 
Date/Time
EST
Temp
°C
App
Temp
°C
Dew
Point
Rel
Hum
%
Delta-T
°C
Wind Press
QNH
hPa
Press
MSL
hPa
Rain
since 9 am
mm
Dir
 
Spd
km/h
Gust
km/h
Spd
kts
Gust
kts
06/11:30pm 26.4 28.7 19.5 66 4.5 NW 6 6 3 3 1007.4 1006.0 0.0
06/11:00pm 27.1 28.4 17.0 54 6.4 NNW 6 6 3 3 1007.4 1006.0 0.0
06/10:30pm 27.6 28.9 17.2 53 6.6 N 6 6 3 3 1007.3 1005.9 0.0
06/10:00pm 27.9 29.1 17.4 52 6.7 N 7 7 4 4 1007.0 1005.6 0.0
06/09:30pm 28.5 29.6 16.7 48 7.4 N 6 7 3 4 1006.8 1005.4 0.0
06/09:00pm 28.9 30.0 17.1 49 7.5 N 7 9 4 5 1006.6 1005.2 0.0
06/08:30pm 30.0 30.8 16.4 44 8.6 NNE 7 7 4 4 1006.6 1005.2 0.0
06/08:00pm 31.0 32.9 15.8 40 9.5 CALM 0 0 0 0 1006.3 1004.9 0.0
06/07:30pm 32.2 34.1 15.7 37 10.3 CALM 0 0 0 0 1005.8 1004.5 0.0
06/07:00pm 33.6 33.1 10.9 25 13.4 SSW 4 6 2 3 1005.6 1004.3 0.0
06/06:30pm 33.7 32.5 9.7 23 13.8 SE 6 7 3 4 1005.3 1004.0 0.0
06/06:00pm 34.0 32.9 9.9 23 14.0 SE 6 9 3 5 1005.0 1003.7 0.0
06/05:30pm 34.4 32.6 9.6 22 14.3 SW 9 13 5 7 1004.8 1003.5 0.0
06/05:00pm 34.5 33.9 11.6 25 13.7 S 6 17 3 9 1004.7 1003.4 0.0
06/04:30pm 34.4 33.0 9.6 22 14.3 SW 7 11 4 6 1004.8 1003.5 0.0
06/04:00pm 34.6 34.4 12.9 27 13.2 SE 6 11 3 6 1004.9 1003.6 0.0
06/03:30pm 34.6 33.8 11.7 25 13.7 NW 7 15 4 8 1005.2 1003.9 0.0
06/03:00pm 34.1 32.4 11.3 25 13.5 WSW 11 17 6 9 1005.4 1004.1 0.0
06/02:30pm 34.2 33.3 11.4 25 13.5 SW 7 13 4 7 1005.6 1004.3 0.0
06/02:00pm 33.6 31.8 9.6 23 13.8 SSE 9 17 5 9 1006.0 1004.7 0.0
06/01:30pm 33.4 32.4 12.4 28 12.6 S 9 17 5 9 1006.3 1004.9 0.0
06/01:00pm 33.7 32.5 12.7 28 12.7 SSW 11 19 6 10 1006.4 1005.0 0.0
06/12:30pm 33.1 32.2 13.7 31 11.9 S 11 17 6 9 1006.7 1005.3 0.0
06/12:00pm 32.4 31.7 15.4 36 10.6 SSE 13 19 7 10 1007.1 1005.7 0.0
06/11:30am 31.4 32.3 18.4 46 8.5 SSW 11 19 6 10 1007.2 1005.8 0.0
06/11:00am 30.5 30.8 17.9 47 8.1 S 13 17 7 9 1007.5 1006.1 0.0
06/10:30am 30.0 29.9 17.8 48 7.8 SSW 15 20 8 11 1007.6 1006.2 0.0
06/10:00am 29.2 29.0 17.7 50 7.4 S 15 20 8 11 1007.6 1006.2 0.0
06/09:30am 28.1 27.8 17.3 52 6.8 S 15 20 8 11 1007.6 1006.2 0.0
06/09:00am 27.1 26.3 17.0 54 6.4 SSW 17 28 9 15 1007.2 1005.8 0.0
06/08:30am 25.9 25.4 15.9 54 6.2 SSW 13 20 7 11 1007.0 1005.6 0.0
06/08:00am 24.4 24.4 15.1 56 5.6 SSW 9 13 5 7 1006.8 1005.4 0.0
06/07:30am 22.5 22.8 14.6 61 4.7 SW 6 7 3 4 1006.6 1005.2 0.0
06/07:00am 20.6 20.7 14.5 68 3.6 SW 7 9 4 5 1006.3 1004.9 0.0
06/06:30am 20.3 20.1 13.7 66 3.8 SW 7 7 4 4 1005.9 1004.6 0.0
06/06:00am 21.0 20.1 13.7 63 4.3 SW 11 13 6 7 1005.5 1004.2 0.0
06/05:30am 21.3 19.8 13.2 60 4.7 SW 13 15 7 8 1005.2 1003.9 0.0
06/05:00am 20.8 19.8 13.3 62 4.3 SW 11 15 6 8 1005.2 1003.9 0.0
06/04:30am 20.7 19.7 13.4 63 4.2 SW 11 13 6 7 1005.2 1003.9 0.0
06/04:00am 19.8 19.6 14.8 73 3.0 WSW 9 13 5 7 1005.0 1003.7 0.0
06/03:30am 20.2 20.6 15.4 74 2.9 W 7 9 4 5 1005.2 1003.9 0.0
06/03:00am 20.5 20.6 15.5 73 3.0 W 9 9 5 5 1005.5 1004.2 0.0
06/02:30am 20.7 21.3 15.9 74 2.9 NW 7 9 4 5 1005.8 1004.5 0.0
06/02:00am 20.9 21.6 15.7 72 3.1 NW 6 6 3 3 1006.2 1004.8 0.0
06/01:30am 20.8 22.5 16.2 75 2.8 NW 2 6 1 3 1006.4 1005.0 0.0
06/01:00am 21.3 23.4 16.3 73 3.0 CALM 0 0 0 0 1006.7 1005.3 0.0
06/12:30am 21.9 23.9 16.0 69 3.6 CALM 0 4 0 2 1007.1 1005.7 0.0
06/12:00am 21.4 21.9 15.0 67 3.8 ESE 6 9 3 5 1007.5 1006.1 0.0
 
Date/Time
EST
Temp
°C
App
Temp
°C
Dew
Point
Rel
Hum
%
Delta-T
°C
Wind Press
QNH
hPa
Press
MSL
hPa
Rain
since 9 am
mm
Dir
 
Spd
km/h
Gust
km/h
Spd
kts
Gust
kts
05/11:30pm 22.1 23.0 14.0 60 4.8 SW 2 4 1 2 1007.5 1006.1 0.0
05/11:00pm 22.7 22.4 13.2 55 5.5 SSW 7 7 4 4 1007.6 1006.2 0.0
05/10:30pm 23.5 23.0 12.8 51 6.2 SW 7 9 4 5 1007.7 1006.3 0.0
05/10:00pm 23.7 23.0 13.3 52 6.1 SSW 9 9 5 5 1007.7 1006.3 0.0
05/09:30pm 24.3 23.3 13.5 51 6.3 SSW 11 13 6 7 1007.7 1006.3 0.0
05/09:00pm 24.9 24.0 13.8 50 6.6 SSW 11 17 6 9 1007.7 1006.3 0.0
05/08:30pm 25.1 25.0 14.9 53 6.2 SW 9 11 5 6 1007.5 1006.1 0.0
05/08:00pm 26.0 26.0 14.1 47 7.1 SW 7 9 4 5 1007.1 1005.7 0.0
05/07:30pm 27.5 27.1 13.1 41 8.5 SW 7 9 4 5 1006.8 1005.4 0.0
05/07:00pm 29.6 28.0 11.6 33 10.5 SSW 11 15 6 8 1006.4 1005.0 0.0
05/06:30pm 30.4 28.0 11.4 31 11.1 S 15 20 8 11 1006.2 1004.8 0.0
05/06:00pm 30.8 28.0 11.2 30 11.5 SSW 17 20 9 11 1005.7 1004.4 0.0
05/05:30pm 30.9 27.7 11.3 30 11.4 SSW 19 28 10 15 1005.4 1004.1 0.0
05/05:00pm 31.1 28.5 12.0 31 11.3 SSW 17 28 9 15 1005.2 1003.9 0.0
05/04:30pm 30.9 27.1 11.3 30 11.4 SSW 22 30 12 16 1005.4 1004.1 0.0
05/04:00pm 31.3 28.9 12.6 31 11.2 S 17 28 9 15 1005.7 1004.4 0.0
05/03:30pm 31.1 28.3 12.5 32 11.1 S 19 30 10 16 1006.2 1004.8 0.0
05/03:00pm 30.9 28.0 12.3 32 11.1 S 19 28 10 15 1006.5 1005.1 0.0
05/02:30pm 30.5 27.5 11.9 31 10.9 SSE 19 26 10 14 1007.1 1005.7 0.0
05/02:00pm 30.4 27.7 12.8 34 10.5 S 19 26 10 14 1007.6 1006.2 0.0
05/01:30pm 29.9 26.4 12.3 33 10.4 S 22 30 12 16 1008.0 1006.7 0.0
05/01:00pm 29.5 26.9 13.7 38 9.5 SSE 20 28 11 15 1008.4 1007.1 0.0
05/12:30pm 29.2 26.0 13.0 37 9.6 SSE 22 28 12 15 1008.9 1007.6 0.0
05/12:00pm 28.8 26.1 13.5 39 9.2 SSE 20 28 11 15 1009.4 1008.1 0.0
05/11:30am 28.1 24.7 12.5 38 9.2 SSE 22 30 12 16 1009.7 1008.4 0.0
05/11:00am 27.9 25.3 13.8 42 8.5 S 20 28 11 15 1009.9 1008.6 0.0
05/10:30am 26.9 23.6 12.9 42 8.2 SSE 22 35 12 19 1009.9 1008.6 0.0
05/10:00am 26.4 23.2 13.2 44 7.8 SSE 22 30 12 16 1009.9 1008.6 0.0
05/09:30am 25.8 23.1 13.6 47 7.2 S 20 28 11 15 1009.8 1008.5 0.0
05/09:00am 24.4 21.7 13.0 49 6.7 S 19 26 10 14 1009.6 1008.3 0.0
05/08:30am 23.6 20.6 12.6 50 6.3 S 20 28 11 15 1009.4 1008.1 0.0
05/08:00am 22.6 20.1 12.3 52 5.9 S 17 26 9 14 1009.2 1007.9 0.0
05/07:30am 21.7 19.6 12.5 56 5.3 S 15 20 8 11 1009.1 1007.8 0.0
05/07:00am 20.9 18.9 12.8 60 4.6 SSW 15 20 8 11 1008.7 1007.4 0.0
05/06:30am 20.7 18.4 12.9 61 4.5 SSW 17 22 9 12 1008.3 1007.0 0.0
05/06:00am 21.2 18.8 12.6 58 4.9 S 17 22 9 12 1007.9 1006.5 0.0
05/05:30am 21.6 18.8 12.7 57 5.1 S 19 24 10 13 1007.6 1006.2 0.0
05/05:00am 21.6 19.4 13.2 59 4.9 S 17 22 9 12 1007.3 1005.9 0.0
05/04:30am 21.5 20.0 14.2 63 4.3 S 15 20 8 11 1007.2 1005.8 0.0
05/04:00am 21.4 20.2 15.0 67 3.8 S 15 19 8 10 1007.1 1005.7 0.0
05/03:30am 21.3 20.9 15.2 68 3.6 S 11 15 6 8 1007.1 1005.7 0.0
05/03:00am 21.4 21.4 15.3 68 3.7 S 9 11 5 6 1007.2 1005.8 0.0
05/02:30am 22.4 21.5 14.8 62 4.5 S 13 17 7 9 1007.2 1005.8 0.0
05/02:00am 22.4 22.3 16.0 67 3.9 SSE 11 15 6 8 1007.4 1006.0 0.0
05/01:30am 22.5 22.5 16.3 68 3.8 S 11 13 6 7 1007.7 1006.3 0.0
05/01:00am 22.6 22.7 16.6 69 3.7 S 11 13 6 7 1007.8 1006.4 0.0
05/12:30am 22.8 23.3 16.6 68 3.8 S 9 11 5 6 1008.1 1006.8 0.0
05/12:00am 23.0 24.1 17.2 70 3.6 S 7 9 4 5 1008.2 1006.9 0.0
 
Date/Time
EST
Temp
°C
App
Temp
°C
Dew
Point
Rel
Hum
%
Delta-T
°C
Wind Press
QNH
hPa
Press
MSL
hPa
Rain
since 9 am
mm
Dir
 
Spd
km/h
Gust
km/h
Spd
kts
Gust
kts
04/11:30pm 23.1 24.1 17.8 72 3.3 S 9 11 5 6 1008.5 1007.2 0.0
04/11:00pm 23.6 24.7 18.0 71 3.5 S 9 11 5 6 1008.6 1007.3 0.0
04/10:30pm 23.2 24.5 18.5 75 3.0 S 9 9 5 5 1008.5 1007.2 0.0
04/10:00pm 24.2 25.5 18.4 70 3.7 S 9 9 5 5 1008.5 1007.2 0.0
04/09:30pm 24.2 25.4 18.2 69 3.8 S 9 11 5 6 1008.3 1007.0 0.0
04/09:00pm 24.8 26.3 18.0 66 4.3 S 7 9 4 5 1008.3 1007.0 0.0
04/08:30pm 25.6 26.6 17.8 62 4.9 S 9 9 5 5 1008.2 1006.9 0.0
04/08:00pm 26.3 27.1 17.4 58 5.6 S 9 11 5 6 1008.1 1006.8 0.0
04/07:30pm 27.9 27.9 16.2 49 7.3 S 11 17 6 9 1007.9 1006.5 0.0
04/07:00pm 29.3 27.4 15.1 42 8.8 S 19 24 10 13 1007.7 1006.3 0.0
04/06:30pm 30.0 27.6 14.5 38 9.5 S 20 33 11 18 1007.5 1006.1 0.0
04/06:00pm 30.1 26.6 14.6 39 9.5 S 26 39 14 21 1007.1 1005.7 0.0
04/05:30pm 30.4 28.2 16.0 41 9.0 S 22 35 12 19 1007.0 1005.6 0.0
04/05:00pm 30.3 26.8 15.6 41 9.2 S 28 37 15 20 1006.9 1005.5 0.0
04/04:30pm 30.2 27.2 15.9 42 8.9 S 26 35 14 19 1006.7 1005.3 0.0
04/04:00pm 30.0 28.0 17.5 47 8.0 SSE 24 37 13 20 1007.0 1005.6 0.0
04/03:30pm 29.9 27.4 17.0 45 8.2 SSE 26 33 14 18 1007.4 1006.0 0.0
04/03:00pm 29.9 27.6 17.7 48 7.8 SSE 26 43 14 23 1007.5 1006.1 0.0
04/02:30pm 29.3 26.6 17.5 49 7.5 S 28 39 15 21 1007.9 1006.5 0.0
04/02:00pm 29.0 26.8 17.8 50 7.2 SSE 26 35 14 19 1008.1 1006.8 0.0

Other Formats:

Comma delimited format used in spreadsheet applications
http://www.bom.gov.au/fwo/IDQ60801/IDQ60801.94344.axf

JavaScript Object Notation format (JSON) in row-major order
http://www.bom.gov.au/fwo/IDQ60801/IDQ60801.94344.json